sensor_id;sensor_type;location;lat;lon;timestamp;P1;durP1;ratioP1;P2;durP2;ratioP2
37239;SDS011;23130;48.760;9.178;2023-02-22T00:00:21;6.60;;;2.55;;
37239;SDS011;23130;48.760;9.178;2023-02-22T00:02:51;4.25;;;2.08;;
37239;SDS011;23130;48.760;9.178;2023-02-22T00:05:23;4.85;;;2.15;;
37239;SDS011;23130;48.760;9.178;2023-02-22T00:07:50;4.70;;;2.60;;
37239;SDS011;23130;48.760;9.178;2023-02-22T00:10:16;4.40;;;2.25;;
37239;SDS011;23130;48.760;9.178;2023-02-22T00:12:46;8.57;;;3.88;;
37239;SDS011;23130;48.760;9.178;2023-02-22T00:15:13;6.72;;;3.88;;
37239;SDS011;23130;48.760;9.178;2023-02-22T00:17:40;9.40;;;3.00;;
37239;SDS011;23130;48.760;9.178;2023-02-22T00:20:07;3.67;;;2.58;;
37239;SDS011;23130;48.760;9.178;2023-02-22T00:22:34;4.55;;;2.00;;
37239;SDS011;23130;48.760;9.178;2023-02-22T00:25:00;6.18;;;2.30;;
37239;SDS011;23130;48.760;9.178;2023-02-22T00:27:25;4.20;;;2.65;;
37239;SDS011;23130;48.760;9.178;2023-02-22T00:29:51;5.32;;;2.28;;
37239;SDS011;23130;48.760;9.178;2023-02-22T00:32:17;4.15;;;2.25;;
37239;SDS011;23130;48.760;9.178;2023-02-22T00:34:42;7.78;;;4.03;;
37239;SDS011;23130;48.760;9.178;2023-02-22T00:37:09;8.50;;;3.17;;
37239;SDS011;23130;48.760;9.178;2023-02-22T00:39:35;6.95;;;2.90;;
37239;SDS011;23130;48.760;9.178;2023-02-22T00:42:01;10.77;;;3.85;;
37239;SDS011;23130;48.760;9.178;2023-02-22T00:44:26;11.57;;;4.63;;
37239;SDS011;23130;48.760;9.178;2023-02-22T00:46:52;6.75;;;3.90;;
37239;SDS011;23130;48.760;9.178;2023-02-22T00:49:17;8.93;;;4.13;;
37239;SDS011;23130;48.760;9.178;2023-02-22T00:51:43;9.20;;;4.43;;
37239;SDS011;23130;48.760;9.178;2023-02-22T00:54:09;9.68;;;4.80;;
37239;SDS011;23130;48.760;9.178;2023-02-22T00:56:35;10.00;;;4.70;;
37239;SDS011;23130;48.760;9.178;2023-02-22T00:59:01;9.27;;;4.85;;
37239;SDS011;23130;48.760;9.178;2023-02-22T01:01:27;8.48;;;4.15;;
37239;SDS011;23130;48.760;9.178;2023-02-22T01:03:53;10.35;;;4.55;;
37239;SDS011;23130;48.760;9.178;2023-02-22T01:06:19;8.02;;;4.38;;
37239;SDS011;23130;48.760;9.178;2023-02-22T01:08:45;10.07;;;4.43;;
37239;SDS011;23130;48.760;9.178;2023-02-22T01:11:12;6.60;;;4.07;;
37239;SDS011;23130;48.760;9.178;2023-02-22T01:13:39;11.43;;;4.78;;
37239;SDS011;23130;48.760;9.178;2023-02-22T01:16:05;8.98;;;5.50;;
37239;SDS011;23130;48.760;9.178;2023-02-22T01:18:34;9.00;;;4.22;;
37239;SDS011;23130;48.760;9.178;2023-02-22T01:21:00;7.05;;;4.20;;
37239;SDS011;23130;48.760;9.178;2023-02-22T01:23:28;9.18;;;5.13;;
37239;SDS011;23130;48.760;9.178;2023-02-22T01:25:53;8.88;;;5.40;;
37239;SDS011;23130;48.760;9.178;2023-02-22T01:28:19;11.90;;;5.07;;
37239;SDS011;23130;48.760;9.178;2023-02-22T01:30:46;8.50;;;4.90;;
37239;SDS011;23130;48.760;9.178;2023-02-22T01:33:13;8.57;;;4.68;;
37239;SDS011;23130;48.760;9.178;2023-02-22T01:35:40;10.25;;;5.10;;
37239;SDS011;23130;48.760;9.178;2023-02-22T01:38:07;9.40;;;4.63;;
37239;SDS011;23130;48.760;9.178;2023-02-22T01:40:38;10.38;;;4.35;;
37239;SDS011;23130;48.760;9.178;2023-02-22T01:45:56;10.65;;;4.95;;
37239;SDS011;23130;48.760;9.178;2023-02-22T01:50:52;11.45;;;5.80;;
37239;SDS011;23130;48.760;9.178;2023-02-22T01:53:19;15.52;;;5.88;;
37239;SDS011;23130;48.760;9.178;2023-02-22T01:55:48;8.50;;;5.25;;
37239;SDS011;23130;48.760;9.178;2023-02-22T01:58:16;10.93;;;5.20;;
37239;SDS011;23130;48.760;9.178;2023-02-22T02:00:43;12.20;;;5.15;;
37239;SDS011;23130;48.760;9.178;2023-02-22T02:03:22;14.15;;;6.20;;
37239;SDS011;23130;48.760;9.178;2023-02-22T02:05:51;11.10;;;5.35;;
37239;SDS011;23130;48.760;9.178;2023-02-22T02:11:23;12.10;;;5.15;;
37239;SDS011;23130;48.760;9.178;2023-02-22T02:13:50;12.05;;;5.07;;
37239;SDS011;23130;48.760;9.178;2023-02-22T02:16:19;9.35;;;5.18;;
37239;SDS011;23130;48.760;9.178;2023-02-22T02:18:49;10.32;;;5.15;;
37239;SDS011;23130;48.760;9.178;2023-02-22T02:27:01;10.38;;;5.43;;
37239;SDS011;23130;48.760;9.178;2023-02-22T02:29:43;7.80;;;4.78;;
37239;SDS011;23130;48.760;9.178;2023-02-22T02:38:06;13.45;;;5.75;;
37239;SDS011;23130;48.760;9.178;2023-02-22T02:46:09;8.30;;;5.20;;
37239;SDS011;23130;48.760;9.178;2023-02-22T02:48:46;8.93;;;5.60;;
37239;SDS011;23130;48.760;9.178;2023-02-22T02:51:20;14.07;;;5.40;;
37239;SDS011;23130;48.760;9.178;2023-02-22T02:53:49;12.23;;;5.70;;
37239;SDS011;23130;48.760;9.178;2023-02-22T02:56:17;11.52;;;4.90;;
37239;SDS011;23130;48.760;9.178;2023-02-22T02:58:44;11.13;;;5.03;;
37239;SDS011;23130;48.760;9.178;2023-02-22T03:01:13;10.07;;;5.28;;
37239;SDS011;23130;48.760;9.178;2023-02-22T03:06:42;9.55;;;5.15;;
37239;SDS011;23130;48.760;9.178;2023-02-22T03:12:06;13.80;;;5.38;;
37239;SDS011;23130;48.760;9.178;2023-02-22T03:14:58;9.65;;;5.72;;
37239;SDS011;23130;48.760;9.178;2023-02-22T03:17:46;10.23;;;5.63;;
37239;SDS011;23130;48.760;9.178;2023-02-22T03:25:44;13.38;;;5.00;;
37239;SDS011;23130;48.760;9.178;2023-02-22T03:28:15;11.32;;;6.03;;
37239;SDS011;23130;48.760;9.178;2023-02-22T03:33:15;12.82;;;6.43;;
37239;SDS011;23130;48.760;9.178;2023-02-22T03:35:55;13.65;;;5.50;;
37239;SDS011;23130;48.760;9.178;2023-02-22T03:38:25;9.00;;;5.78;;
37239;SDS011;23130;48.760;9.178;2023-02-22T03:40:55;9.88;;;5.43;;
37239;SDS011;23130;48.760;9.178;2023-02-22T03:43:24;13.25;;;6.45;;
37239;SDS011;23130;48.760;9.178;2023-02-22T03:45:55;12.65;;;5.93;;
37239;SDS011;23130;48.760;9.178;2023-02-22T03:51:08;11.65;;;6.43;;
37239;SDS011;23130;48.760;9.178;2023-02-22T03:53:35;12.02;;;6.68;;
37239;SDS011;23130;48.760;9.178;2023-02-22T03:56:01;15.85;;;6.78;;
37239;SDS011;23130;48.760;9.178;2023-02-22T03:58:31;15.05;;;6.65;;
37239;SDS011;23130;48.760;9.178;2023-02-22T04:01:00;12.63;;;7.05;;
37239;SDS011;23130;48.760;9.178;2023-02-22T04:03:26;9.70;;;6.10;;
37239;SDS011;23130;48.760;9.178;2023-02-22T04:05:51;12.68;;;6.50;;
37239;SDS011;23130;48.760;9.178;2023-02-22T04:08:17;12.95;;;6.60;;
37239;SDS011;23130;48.760;9.178;2023-02-22T04:10:43;11.02;;;5.88;;
37239;SDS011;23130;48.760;9.178;2023-02-22T04:13:09;12.23;;;7.22;;
37239;SDS011;23130;48.760;9.178;2023-02-22T04:15:35;10.20;;;5.43;;
37239;SDS011;23130;48.760;9.178;2023-02-22T04:18:00;10.38;;;6.25;;
37239;SDS011;23130;48.760;9.178;2023-02-22T04:20:26;11.10;;;6.13;;
37239;SDS011;23130;48.760;9.178;2023-02-22T04:22:51;15.38;;;7.13;;
37239;SDS011;23130;48.760;9.178;2023-02-22T04:25:18;11.88;;;6.85;;
37239;SDS011;23130;48.760;9.178;2023-02-22T04:27:44;10.00;;;6.13;;
37239;SDS011;23130;48.760;9.178;2023-02-22T04:30:10;13.85;;;7.22;;
37239;SDS011;23130;48.760;9.178;2023-02-22T04:32:36;11.32;;;6.75;;
37239;SDS011;23130;48.760;9.178;2023-02-22T04:35:03;13.95;;;6.85;;
37239;SDS011;23130;48.760;9.178;2023-02-22T04:37:29;12.82;;;6.72;;
37239;SDS011;23130;48.760;9.178;2023-02-22T04:39:58;12.10;;;6.63;;
37239;SDS011;23130;48.760;9.178;2023-02-22T04:42:24;11.68;;;6.47;;
37239;SDS011;23130;48.760;9.178;2023-02-22T04:44:50;12.15;;;6.80;;
37239;SDS011;23130;48.760;9.178;2023-02-22T04:47:15;14.18;;;7.13;;
37239;SDS011;23130;48.760;9.178;2023-02-22T04:49:41;10.50;;;6.72;;
37239;SDS011;23130;48.760;9.178;2023-02-22T04:52:06;14.13;;;7.13;;
37239;SDS011;23130;48.760;9.178;2023-02-22T04:54:32;14.60;;;7.28;;
37239;SDS011;23130;48.760;9.178;2023-02-22T04:56:58;17.08;;;7.50;;
37239;SDS011;23130;48.760;9.178;2023-02-22T04:59:23;13.18;;;6.78;;
37239;SDS011;23130;48.760;9.178;2023-02-22T05:01:49;11.57;;;6.75;;
37239;SDS011;23130;48.760;9.178;2023-02-22T05:04:14;13.75;;;7.35;;
37239;SDS011;23130;48.760;9.178;2023-02-22T05:06:40;13.73;;;6.75;;
37239;SDS011;23130;48.760;9.178;2023-02-22T05:09:05;11.90;;;6.35;;
37239;SDS011;23130;48.760;9.178;2023-02-22T05:11:31;15.50;;;6.70;;
37239;SDS011;23130;48.760;9.178;2023-02-22T05:13:57;15.43;;;6.78;;
37239;SDS011;23130;48.760;9.178;2023-02-22T05:16:22;16.45;;;7.32;;
37239;SDS011;23130;48.760;9.178;2023-02-22T05:18:48;13.48;;;7.57;;
37239;SDS011;23130;48.760;9.178;2023-02-22T05:21:13;14.02;;;8.05;;
37239;SDS011;23130;48.760;9.178;2023-02-22T05:23:39;19.83;;;8.02;;
37239;SDS011;23130;48.760;9.178;2023-02-22T05:26:05;17.10;;;8.25;;
37239;SDS011;23130;48.760;9.178;2023-02-22T05:28:31;15.10;;;6.68;;
37239;SDS011;23130;48.760;9.178;2023-02-22T05:30:57;12.05;;;7.03;;
37239;SDS011;23130;48.760;9.178;2023-02-22T05:33:22;16.35;;;8.32;;
37239;SDS011;23130;48.760;9.178;2023-02-22T05:35:48;15.10;;;7.15;;
37239;SDS011;23130;48.760;9.178;2023-02-22T05:38:14;14.82;;;8.50;;
37239;SDS011;23130;48.760;9.178;2023-02-22T05:40:41;16.48;;;8.45;;
37239;SDS011;23130;48.760;9.178;2023-02-22T05:43:07;19.50;;;8.40;;
37239;SDS011;23130;48.760;9.178;2023-02-22T05:45:33;18.17;;;8.25;;
37239;SDS011;23130;48.760;9.178;2023-02-22T05:48:00;17.52;;;7.38;;
37239;SDS011;23130;48.760;9.178;2023-02-22T05:50:26;16.58;;;7.85;;
37239;SDS011;23130;48.760;9.178;2023-02-22T05:52:52;14.07;;;7.45;;
37239;SDS011;23130;48.760;9.178;2023-02-22T05:55:19;14.32;;;7.63;;
37239;SDS011;23130;48.760;9.178;2023-02-22T05:57:46;12.45;;;7.50;;
37239;SDS011;23130;48.760;9.178;2023-02-22T06:00:16;17.10;;;8.00;;
37239;SDS011;23130;48.760;9.178;2023-02-22T06:02:47;12.73;;;7.38;;
37239;SDS011;23130;48.760;9.178;2023-02-22T06:05:18;16.50;;;7.93;;
37239;SDS011;23130;48.760;9.178;2023-02-22T06:07:43;14.70;;;7.38;;
37239;SDS011;23130;48.760;9.178;2023-02-22T06:10:09;13.95;;;7.40;;
37239;SDS011;23130;48.760;9.178;2023-02-22T06:12:34;16.13;;;7.13;;
37239;SDS011;23130;48.760;9.178;2023-02-22T06:15:00;12.93;;;7.57;;
37239;SDS011;23130;48.760;9.178;2023-02-22T06:17:25;15.25;;;7.22;;
37239;SDS011;23130;48.760;9.178;2023-02-22T06:19:51;13.90;;;7.85;;
37239;SDS011;23130;48.760;9.178;2023-02-22T06:24:52;16.90;;;7.13;;
37239;SDS011;23130;48.760;9.178;2023-02-22T06:27:18;10.95;;;6.80;;
37239;SDS011;23130;48.760;9.178;2023-02-22T06:29:44;15.45;;;7.55;;
37239;SDS011;23130;48.760;9.178;2023-02-22T06:32:13;12.93;;;6.65;;
37239;SDS011;23130;48.760;9.178;2023-02-22T06:34:39;12.98;;;7.43;;
37239;SDS011;23130;48.760;9.178;2023-02-22T06:37:07;14.45;;;6.88;;
37239;SDS011;23130;48.760;9.178;2023-02-22T06:39:33;11.82;;;7.68;;
37239;SDS011;23130;48.760;9.178;2023-02-22T06:41:58;13.32;;;7.03;;
37239;SDS011;23130;48.760;9.178;2023-02-22T06:44:24;17.10;;;7.32;;
37239;SDS011;23130;48.760;9.178;2023-02-22T06:46:50;13.82;;;6.43;;
37239;SDS011;23130;48.760;9.178;2023-02-22T06:49:16;12.38;;;6.75;;
37239;SDS011;23130;48.760;9.178;2023-02-22T06:51:42;12.73;;;6.88;;
37239;SDS011;23130;48.760;9.178;2023-02-22T06:54:08;12.48;;;7.50;;
37239;SDS011;23130;48.760;9.178;2023-02-22T06:56:33;14.55;;;7.57;;
37239;SDS011;23130;48.760;9.178;2023-02-22T06:58:59;13.90;;;7.90;;
37239;SDS011;23130;48.760;9.178;2023-02-22T07:01:26;11.20;;;7.28;;
37239;SDS011;23130;48.760;9.178;2023-02-22T07:03:52;12.00;;;7.07;;
37239;SDS011;23130;48.760;9.178;2023-02-22T07:06:17;13.25;;;7.03;;
37239;SDS011;23130;48.760;9.178;2023-02-22T07:08:43;12.32;;;6.72;;
37239;SDS011;23130;48.760;9.178;2023-02-22T07:11:08;11.25;;;6.57;;
37239;SDS011;23130;48.760;9.178;2023-02-22T07:13:34;12.73;;;7.45;;
37239;SDS011;23130;48.760;9.178;2023-02-22T07:16:00;14.18;;;6.75;;
37239;SDS011;23130;48.760;9.178;2023-02-22T07:18:26;13.55;;;6.85;;
37239;SDS011;23130;48.760;9.178;2023-02-22T07:20:51;10.77;;;6.38;;
37239;SDS011;23130;48.760;9.178;2023-02-22T07:23:18;12.15;;;6.35;;
37239;SDS011;23130;48.760;9.178;2023-02-22T07:25:44;15.18;;;7.40;;
37239;SDS011;23130;48.760;9.178;2023-02-22T07:28:10;13.77;;;6.53;;
37239;SDS011;23130;48.760;9.178;2023-02-22T07:30:36;12.85;;;6.90;;
37239;SDS011;23130;48.760;9.178;2023-02-22T07:33:07;12.70;;;6.90;;
37239;SDS011;23130;48.760;9.178;2023-02-22T07:35:44;11.45;;;6.68;;
37239;SDS011;23130;48.760;9.178;2023-02-22T07:38:11;12.73;;;6.10;;
37239;SDS011;23130;48.760;9.178;2023-02-22T07:40:37;12.63;;;6.72;;
37239;SDS011;23130;48.760;9.178;2023-02-22T07:43:04;11.45;;;6.75;;
37239;SDS011;23130;48.760;9.178;2023-02-22T07:45:39;15.30;;;7.82;;
37239;SDS011;23130;48.760;9.178;2023-02-22T07:48:05;15.25;;;7.18;;
37239;SDS011;23130;48.760;9.178;2023-02-22T07:50:32;11.75;;;7.13;;
37239;SDS011;23130;48.760;9.178;2023-02-22T07:53:03;11.23;;;6.88;;
37239;SDS011;23130;48.760;9.178;2023-02-22T07:55:30;13.20;;;6.30;;
37239;SDS011;23130;48.760;9.178;2023-02-22T07:58:01;11.43;;;6.45;;
37239;SDS011;23130;48.760;9.178;2023-02-22T08:00:30;12.00;;;6.65;;
37239;SDS011;23130;48.760;9.178;2023-02-22T08:03:00;14.00;;;6.60;;
37239;SDS011;23130;48.760;9.178;2023-02-22T08:05:27;9.32;;;5.38;;
37239;SDS011;23130;48.760;9.178;2023-02-22T08:07:53;13.00;;;5.68;;
37239;SDS011;23130;48.760;9.178;2023-02-22T08:10:20;13.40;;;5.75;;
37239;SDS011;23130;48.760;9.178;2023-02-22T08:12:47;15.60;;;5.90;;
37239;SDS011;23130;48.760;9.178;2023-02-22T08:15:14;12.18;;;6.75;;
37239;SDS011;23130;48.760;9.178;2023-02-22T08:17:42;9.48;;;6.38;;
37239;SDS011;23130;48.760;9.178;2023-02-22T08:20:08;13.20;;;6.45;;
37239;SDS011;23130;48.760;9.178;2023-02-22T08:22:34;11.13;;;6.50;;
37239;SDS011;23130;48.760;9.178;2023-02-22T08:24:59;8.27;;;5.18;;
37239;SDS011;23130;48.760;9.178;2023-02-22T08:27:26;8.80;;;5.72;;
37239;SDS011;23130;48.760;9.178;2023-02-22T08:29:53;10.60;;;6.05;;
37239;SDS011;23130;48.760;9.178;2023-02-22T08:32:20;9.63;;;5.72;;
37239;SDS011;23130;48.760;9.178;2023-02-22T08:34:45;10.02;;;6.18;;
37239;SDS011;23130;48.760;9.178;2023-02-22T08:37:11;12.73;;;6.07;;
37239;SDS011;23130;48.760;9.178;2023-02-22T08:39:38;11.73;;;6.80;;
37239;SDS011;23130;48.760;9.178;2023-02-22T08:42:04;13.90;;;5.78;;
37239;SDS011;23130;48.760;9.178;2023-02-22T08:44:30;11.98;;;5.95;;
37239;SDS011;23130;48.760;9.178;2023-02-22T08:46:55;9.60;;;6.30;;
37239;SDS011;23130;48.760;9.178;2023-02-22T08:49:22;12.75;;;6.57;;
37239;SDS011;23130;48.760;9.178;2023-02-22T08:51:48;11.00;;;6.63;;
37239;SDS011;23130;48.760;9.178;2023-02-22T08:54:13;10.95;;;6.25;;
37239;SDS011;23130;48.760;9.178;2023-02-22T08:56:39;14.20;;;6.47;;
37239;SDS011;23130;48.760;9.178;2023-02-22T08:59:04;10.63;;;6.40;;
37239;SDS011;23130;48.760;9.178;2023-02-22T09:01:31;9.68;;;5.78;;
37239;SDS011;23130;48.760;9.178;2023-02-22T09:03:58;14.63;;;7.25;;
37239;SDS011;23130;48.760;9.178;2023-02-22T09:06:24;11.52;;;6.63;;
37239;SDS011;23130;48.760;9.178;2023-02-22T09:08:50;16.40;;;7.50;;
37239;SDS011;23130;48.760;9.178;2023-02-22T09:11:15;14.75;;;6.95;;
37239;SDS011;23130;48.760;9.178;2023-02-22T09:13:42;13.65;;;8.15;;
37239;SDS011;23130;48.760;9.178;2023-02-22T09:16:08;17.42;;;7.95;;
37239;SDS011;23130;48.760;9.178;2023-02-22T09:18:33;16.30;;;8.07;;
37239;SDS011;23130;48.760;9.178;2023-02-22T09:20:59;15.55;;;8.50;;
37239;SDS011;23130;48.760;9.178;2023-02-22T09:23:25;13.85;;;8.35;;
37239;SDS011;23130;48.760;9.178;2023-02-22T09:25:51;12.88;;;8.60;;
37239;SDS011;23130;48.760;9.178;2023-02-22T09:28:16;15.52;;;8.38;;
37239;SDS011;23130;48.760;9.178;2023-02-22T09:30:42;17.25;;;7.85;;
37239;SDS011;23130;48.760;9.178;2023-02-22T09:33:09;18.83;;;8.05;;
37239;SDS011;23130;48.760;9.178;2023-02-22T09:35:38;16.05;;;8.13;;
37239;SDS011;23130;48.760;9.178;2023-02-22T09:38:10;27.52;;;8.82;;
37239;SDS011;23130;48.760;9.178;2023-02-22T09:40:38;17.50;;;8.23;;
37239;SDS011;23130;48.760;9.178;2023-02-22T09:46:17;15.93;;;7.15;;
37239;SDS011;23130;48.760;9.178;2023-02-22T09:55:03;11.25;;;6.80;;
37239;SDS011;23130;48.760;9.178;2023-02-22T09:57:50;11.25;;;6.47;;
37239;SDS011;23130;48.760;9.178;2023-02-22T10:00:40;13.55;;;6.75;;
37239;SDS011;23130;48.760;9.178;2023-02-22T10:06:00;10.45;;;6.20;;
37239;SDS011;23130;48.760;9.178;2023-02-22T10:08:35;17.55;;;7.35;;
37239;SDS011;23130;48.760;9.178;2023-02-22T10:13:53;8.88;;;5.78;;
37239;SDS011;23130;48.760;9.178;2023-02-22T10:29:39;10.88;;;5.80;;
37239;SDS011;23130;48.760;9.178;2023-02-22T10:32:10;9.68;;;5.90;;
37239;SDS011;23130;48.760;9.178;2023-02-22T10:34:43;10.02;;;5.55;;
37239;SDS011;23130;48.760;9.178;2023-02-22T10:42:41;12.57;;;6.50;;
37239;SDS011;23130;48.760;9.178;2023-02-22T10:45:16;12.38;;;6.07;;
37239;SDS011;23130;48.760;9.178;2023-02-22T10:47:43;11.98;;;6.30;;
37239;SDS011;23130;48.760;9.178;2023-02-22T10:50:11;9.52;;;6.05;;
37239;SDS011;23130;48.760;9.178;2023-02-22T10:52:38;12.07;;;5.95;;
37239;SDS011;23130;48.760;9.178;2023-02-22T10:55:04;12.73;;;6.25;;
37239;SDS011;23130;48.760;9.178;2023-02-22T10:57:36;12.82;;;6.18;;
37239;SDS011;23130;48.760;9.178;2023-02-22T11:00:16;10.70;;;6.35;;
37239;SDS011;23130;48.760;9.178;2023-02-22T11:02:53;12.82;;;5.75;;
37239;SDS011;23130;48.760;9.178;2023-02-22T11:05:26;10.88;;;6.28;;
37239;SDS011;23130;48.760;9.178;2023-02-22T11:10:49;13.77;;;7.07;;
37239;SDS011;23130;48.760;9.178;2023-02-22T11:13:17;12.18;;;6.40;;
37239;SDS011;23130;48.760;9.178;2023-02-22T11:15:54;12.48;;;6.50;;
37239;SDS011;23130;48.760;9.178;2023-02-22T11:21:05;9.85;;;6.65;;
37239;SDS011;23130;48.760;9.178;2023-02-22T11:23:34;11.57;;;7.25;;
37239;SDS011;23130;48.760;9.178;2023-02-22T11:26:12;12.48;;;6.72;;
37239;SDS011;23130;48.760;9.178;2023-02-22T11:28:42;12.80;;;7.68;;
37239;SDS011;23130;48.760;9.178;2023-02-22T11:31:18;14.05;;;7.43;;
37239;SDS011;23130;48.760;9.178;2023-02-22T11:33:56;13.15;;;7.25;;
37239;SDS011;23130;48.760;9.178;2023-02-22T11:36:34;10.73;;;7.22;;
37239;SDS011;23130;48.760;9.178;2023-02-22T11:39:22;12.90;;;7.85;;
37239;SDS011;23130;48.760;9.178;2023-02-22T11:41:50;10.30;;;7.05;;
37239;SDS011;23130;48.760;9.178;2023-02-22T11:46:56;14.25;;;7.43;;
37239;SDS011;23130;48.760;9.178;2023-02-22T11:49:31;13.85;;;7.35;;
37239;SDS011;23130;48.760;9.178;2023-02-22T12:03:44;16.73;;;8.07;;
37239;SDS011;23130;48.760;9.178;2023-02-22T12:06:43;14.52;;;8.27;;
37239;SDS011;23130;48.760;9.178;2023-02-22T12:09:20;14.07;;;8.18;;
37239;SDS011;23130;48.760;9.178;2023-02-22T12:12:12;15.20;;;8.98;;
37239;SDS011;23130;48.760;9.178;2023-02-22T12:14:44;13.75;;;8.45;;
37239;SDS011;23130;48.760;9.178;2023-02-22T12:17:33;13.00;;;8.90;;
37239;SDS011;23130;48.760;9.178;2023-02-22T12:20:21;12.07;;;7.05;;
37239;SDS011;23130;48.760;9.178;2023-02-22T12:26:02;11.05;;;7.45;;
37239;SDS011;23130;48.760;9.178;2023-02-22T12:28:38;14.73;;;8.50;;
37239;SDS011;23130;48.760;9.178;2023-02-22T12:34:07;12.60;;;8.10;;
37239;SDS011;23130;48.760;9.178;2023-02-22T12:42:49;12.20;;;8.38;;
37239;SDS011;23130;48.760;9.178;2023-02-22T12:45:35;18.45;;;8.77;;
37239;SDS011;23130;48.760;9.178;2023-02-22T12:48:26;13.13;;;8.50;;
37239;SDS011;23130;48.760;9.178;2023-02-22T12:50:58;13.60;;;8.48;;
37239;SDS011;23130;48.760;9.178;2023-02-22T12:53:34;13.23;;;8.38;;
37239;SDS011;23130;48.760;9.178;2023-02-22T12:56:13;11.93;;;7.77;;
37239;SDS011;23130;48.760;9.178;2023-02-22T13:02:02;12.88;;;8.00;;
37239;SDS011;23130;48.760;9.178;2023-02-22T13:04:39;11.93;;;7.63;;
37239;SDS011;23130;48.760;9.178;2023-02-22T13:09:59;15.13;;;8.80;;
37239;SDS011;23130;48.760;9.178;2023-02-22T13:12:52;13.32;;;8.65;;
37239;SDS011;23130;48.760;9.178;2023-02-22T13:15:46;12.48;;;7.97;;
37239;SDS011;23130;48.760;9.178;2023-02-22T13:18:35;13.43;;;8.32;;
37239;SDS011;23130;48.760;9.178;2023-02-22T13:21:28;11.05;;;7.60;;
37239;SDS011;23130;48.760;9.178;2023-02-22T13:24:16;11.50;;;7.13;;
37239;SDS011;23130;48.760;9.178;2023-02-22T13:29:45;14.23;;;8.35;;
37239;SDS011;23130;48.760;9.178;2023-02-22T13:32:19;17.60;;;7.43;;
37239;SDS011;23130;48.760;9.178;2023-02-22T13:35:11;15.48;;;8.50;;
37239;SDS011;23130;48.760;9.178;2023-02-22T13:40:46;13.40;;;7.45;;
37239;SDS011;23130;48.760;9.178;2023-02-22T13:56:32;14.75;;;8.10;;
37239;SDS011;23130;48.760;9.178;2023-02-22T13:58:59;15.05;;;8.18;;
37239;SDS011;23130;48.760;9.178;2023-02-22T14:06:53;16.50;;;9.30;;
37239;SDS011;23130;48.760;9.178;2023-02-22T14:09:46;14.50;;;9.68;;
37239;SDS011;23130;48.760;9.178;2023-02-22T14:17:39;17.73;;;9.90;;
37239;SDS011;23130;48.760;9.178;2023-02-22T14:22:43;12.75;;;7.68;;
37239;SDS011;23130;48.760;9.178;2023-02-22T14:25:28;19.63;;;9.13;;
37239;SDS011;23130;48.760;9.178;2023-02-22T14:27:59;14.18;;;8.20;;
37239;SDS011;23130;48.760;9.178;2023-02-22T14:30:27;17.50;;;9.60;;
37239;SDS011;23130;48.760;9.178;2023-02-22T14:32:56;14.00;;;8.35;;
37239;SDS011;23130;48.760;9.178;2023-02-22T14:35:24;14.77;;;9.10;;
37239;SDS011;23130;48.760;9.178;2023-02-22T14:37:56;16.33;;;9.13;;
37239;SDS011;23130;48.760;9.178;2023-02-22T14:40:25;13.10;;;8.60;;
37239;SDS011;23130;48.760;9.178;2023-02-22T14:43:06;14.95;;;8.20;;
37239;SDS011;23130;48.760;9.178;2023-02-22T14:45:39;14.52;;;7.78;;
37239;SDS011;23130;48.760;9.178;2023-02-22T14:48:31;12.80;;;8.38;;
37239;SDS011;23130;48.760;9.178;2023-02-22T14:53:49;16.92;;;9.35;;
37239;SDS011;23130;48.760;9.178;2023-02-22T15:01:42;13.68;;;9.00;;
37239;SDS011;23130;48.760;9.178;2023-02-22T15:04:18;12.82;;;8.50;;
37239;SDS011;23130;48.760;9.178;2023-02-22T15:06:46;14.38;;;8.82;;
37239;SDS011;23130;48.760;9.178;2023-02-22T15:09:13;14.93;;;9.48;;
37239;SDS011;23130;48.760;9.178;2023-02-22T15:11:54;17.60;;;9.80;;
37239;SDS011;23130;48.760;9.178;2023-02-22T15:14:30;13.95;;;9.63;;
37239;SDS011;23130;48.760;9.178;2023-02-22T15:17:04;16.15;;;10.02;;
37239;SDS011;23130;48.760;9.178;2023-02-22T15:19:34;14.50;;;10.15;;
37239;SDS011;23130;48.760;9.178;2023-02-22T15:22:03;15.13;;;9.75;;
37239;SDS011;23130;48.760;9.178;2023-02-22T15:24:33;15.88;;;9.90;;
37239;SDS011;23130;48.760;9.178;2023-02-22T15:27:14;14.73;;;9.80;;
37239;SDS011;23130;48.760;9.178;2023-02-22T15:29:43;17.58;;;10.77;;
37239;SDS011;23130;48.760;9.178;2023-02-22T15:35:04;17.05;;;9.23;;
37239;SDS011;23130;48.760;9.178;2023-02-22T15:37:36;13.25;;;9.05;;
37239;SDS011;23130;48.760;9.178;2023-02-22T15:40:06;15.40;;;9.82;;
37239;SDS011;23130;48.760;9.178;2023-02-22T15:42:45;16.13;;;9.90;;
37239;SDS011;23130;48.760;9.178;2023-02-22T15:45:18;17.52;;;10.45;;
37239;SDS011;23130;48.760;9.178;2023-02-22T15:47:46;19.98;;;9.85;;
37239;SDS011;23130;48.760;9.178;2023-02-22T15:50:14;24.15;;;11.43;;
37239;SDS011;23130;48.760;9.178;2023-02-22T15:53:07;14.38;;;9.55;;
37239;SDS011;23130;48.760;9.178;2023-02-22T15:55:39;15.30;;;10.15;;
37239;SDS011;23130;48.760;9.178;2023-02-22T16:00:36;15.82;;;9.48;;
37239;SDS011;23130;48.760;9.178;2023-02-22T16:03:05;14.95;;;9.32;;
37239;SDS011;23130;48.760;9.178;2023-02-22T16:05:37;13.43;;;8.65;;
37239;SDS011;23130;48.760;9.178;2023-02-22T16:10:46;19.52;;;10.98;;
37239;SDS011;23130;48.760;9.178;2023-02-22T16:13:18;15.65;;;10.10;;
37239;SDS011;23130;48.760;9.178;2023-02-22T16:15:53;17.17;;;11.65;;
37239;SDS011;23130;48.760;9.178;2023-02-22T16:18:40;19.35;;;11.13;;
37239;SDS011;23130;48.760;9.178;2023-02-22T16:21:15;18.08;;;9.40;;
37239;SDS011;23130;48.760;9.178;2023-02-22T16:23:52;17.45;;;11.30;;
37239;SDS011;23130;48.760;9.178;2023-02-22T16:26:27;18.95;;;12.77;;
37239;SDS011;23130;48.760;9.178;2023-02-22T16:29:00;20.80;;;11.82;;
37239;SDS011;23130;48.760;9.178;2023-02-22T16:31:31;21.73;;;12.32;;
37239;SDS011;23130;48.760;9.178;2023-02-22T16:33:59;18.83;;;12.73;;
37239;SDS011;23130;48.760;9.178;2023-02-22T16:36:41;17.92;;;11.68;;
37239;SDS011;23130;48.760;9.178;2023-02-22T16:39:17;20.98;;;12.63;;
37239;SDS011;23130;48.760;9.178;2023-02-22T16:41:47;19.40;;;11.93;;
37239;SDS011;23130;48.760;9.178;2023-02-22T16:44:14;19.30;;;11.60;;
37239;SDS011;23130;48.760;9.178;2023-02-22T16:46:41;23.00;;;11.75;;
37239;SDS011;23130;48.760;9.178;2023-02-22T16:49:08;15.50;;;11.23;;
37239;SDS011;23130;48.760;9.178;2023-02-22T16:51:39;22.52;;;13.18;;
37239;SDS011;23130;48.760;9.178;2023-02-22T16:54:18;18.85;;;11.30;;
37239;SDS011;23130;48.760;9.178;2023-02-22T16:56:48;18.95;;;11.27;;
37239;SDS011;23130;48.760;9.178;2023-02-22T16:59:15;20.58;;;13.43;;
37239;SDS011;23130;48.760;9.178;2023-02-22T17:01:41;22.33;;;11.23;;
37239;SDS011;23130;48.760;9.178;2023-02-22T17:04:21;18.13;;;10.25;;
37239;SDS011;23130;48.760;9.178;2023-02-22T17:06:48;16.98;;;10.18;;
37239;SDS011;23130;48.760;9.178;2023-02-22T17:09:14;17.50;;;11.27;;
37239;SDS011;23130;48.760;9.178;2023-02-22T17:11:40;17.25;;;11.40;;
37239;SDS011;23130;48.760;9.178;2023-02-22T17:14:07;18.73;;;12.57;;
37239;SDS011;23130;48.760;9.178;2023-02-22T17:16:34;20.88;;;11.75;;
37239;SDS011;23130;48.760;9.178;2023-02-22T17:19:00;18.58;;;11.20;;
37239;SDS011;23130;48.760;9.178;2023-02-22T17:21:28;17.23;;;10.63;;
37239;SDS011;23130;48.760;9.178;2023-02-22T17:23:54;19.02;;;11.30;;
37239;SDS011;23130;48.760;9.178;2023-02-22T17:26:20;19.00;;;11.93;;
37239;SDS011;23130;48.760;9.178;2023-02-22T17:28:46;26.67;;;12.07;;
37239;SDS011;23130;48.760;9.178;2023-02-22T17:31:19;20.10;;;10.77;;
37239;SDS011;23130;48.760;9.178;2023-02-22T17:33:47;19.77;;;11.82;;
37239;SDS011;23130;48.760;9.178;2023-02-22T17:36:15;16.95;;;10.95;;